sensor_id;sensor_type;location;lat;lon;timestamp;P1;durP1;ratioP1;P2;durP2;ratioP2
37559;SDS011;23398;50.928;7.084;2022-07-22T00:00:47;4.63;;;3.67;;
37559;SDS011;23398;50.928;7.084;2022-07-22T00:03:13;6.18;;;3.95;;
37559;SDS011;23398;50.928;7.084;2022-07-22T00:05:38;5.50;;;3.85;;
37559;SDS011;23398;50.928;7.084;2022-07-22T00:08:04;5.22;;;3.60;;
37559;SDS011;23398;50.928;7.084;2022-07-22T00:10:29;4.47;;;3.33;;
37559;SDS011;23398;50.928;7.084;2022-07-22T00:12:55;4.43;;;3.33;;
37559;SDS011;23398;50.928;7.084;2022-07-22T00:15:21;5.28;;;3.25;;
37559;SDS011;23398;50.928;7.084;2022-07-22T00:17:46;5.97;;;3.53;;
37559;SDS011;23398;50.928;7.084;2022-07-22T00:20:12;4.72;;;3.42;;
37559;SDS011;23398;50.928;7.084;2022-07-22T00:22:37;6.13;;;4.50;;
37559;SDS011;23398;50.928;7.084;2022-07-22T00:25:03;7.65;;;4.97;;
37559;SDS011;23398;50.928;7.084;2022-07-22T00:27:29;8.30;;;4.60;;
37559;SDS011;23398;50.928;7.084;2022-07-22T00:29:55;6.50;;;4.13;;
37559;SDS011;23398;50.928;7.084;2022-07-22T00:32:21;4.28;;;3.72;;
37559;SDS011;23398;50.928;7.084;2022-07-22T00:34:46;6.15;;;3.75;;
37559;SDS011;23398;50.928;7.084;2022-07-22T00:37:12;6.57;;;3.25;;
37559;SDS011;23398;50.928;7.084;2022-07-22T00:39:38;4.10;;;3.15;;
37559;SDS011;23398;50.928;7.084;2022-07-22T00:42:04;4.88;;;2.95;;
37559;SDS011;23398;50.928;7.084;2022-07-22T00:44:29;3.75;;;3.10;;
37559;SDS011;23398;50.928;7.084;2022-07-22T00:46:55;4.72;;;2.80;;
37559;SDS011;23398;50.928;7.084;2022-07-22T00:49:20;4.68;;;3.20;;
37559;SDS011;23398;50.928;7.084;2022-07-22T00:51:46;3.88;;;2.83;;
37559;SDS011;23398;50.928;7.084;2022-07-22T00:54:12;3.97;;;2.95;;
37559;SDS011;23398;50.928;7.084;2022-07-22T00:56:38;4.38;;;2.80;;
37559;SDS011;23398;50.928;7.084;2022-07-22T00:59:07;4.63;;;2.70;;
37559;SDS011;23398;50.928;7.084;2022-07-22T01:01:35;4.88;;;2.80;;
37559;SDS011;23398;50.928;7.084;2022-07-22T01:04:00;6.28;;;2.85;;
37559;SDS011;23398;50.928;7.084;2022-07-22T01:06:27;2.85;;;2.40;;
37559;SDS011;23398;50.928;7.084;2022-07-22T01:08:54;6.10;;;2.80;;
37559;SDS011;23398;50.928;7.084;2022-07-22T01:11:20;4.82;;;2.92;;
37559;SDS011;23398;50.928;7.084;2022-07-22T01:13:47;4.35;;;2.58;;
37559;SDS011;23398;50.928;7.084;2022-07-22T01:16:13;4.43;;;2.63;;
37559;SDS011;23398;50.928;7.084;2022-07-22T01:18:40;8.23;;;3.30;;
37559;SDS011;23398;50.928;7.084;2022-07-22T01:21:07;4.88;;;2.55;;
37559;SDS011;23398;50.928;7.084;2022-07-22T01:23:34;5.20;;;2.60;;
37559;SDS011;23398;50.928;7.084;2022-07-22T01:26:00;4.07;;;2.60;;
37559;SDS011;23398;50.928;7.084;2022-07-22T01:28:26;6.78;;;2.83;;
37559;SDS011;23398;50.928;7.084;2022-07-22T01:30:51;3.95;;;2.70;;
37559;SDS011;23398;50.928;7.084;2022-07-22T01:33:18;6.32;;;2.45;;
37559;SDS011;23398;50.928;7.084;2022-07-22T01:35:45;3.70;;;2.72;;
37559;SDS011;23398;50.928;7.084;2022-07-22T01:38:11;6.05;;;2.67;;
37559;SDS011;23398;50.928;7.084;2022-07-22T01:40:37;7.63;;;2.80;;
37559;SDS011;23398;50.928;7.084;2022-07-22T01:43:03;4.50;;;2.95;;
37559;SDS011;23398;50.928;7.084;2022-07-22T01:45:29;4.80;;;2.58;;
37559;SDS011;23398;50.928;7.084;2022-07-22T01:47:55;5.35;;;2.75;;
37559;SDS011;23398;50.928;7.084;2022-07-22T01:50:20;3.83;;;2.75;;
37559;SDS011;23398;50.928;7.084;2022-07-22T01:52:46;5.22;;;2.92;;
37559;SDS011;23398;50.928;7.084;2022-07-22T01:55:11;4.50;;;2.58;;
37559;SDS011;23398;50.928;7.084;2022-07-22T01:57:37;4.65;;;2.55;;
37559;SDS011;23398;50.928;7.084;2022-07-22T02:00:07;3.83;;;2.65;;
37559;SDS011;23398;50.928;7.084;2022-07-22T02:02:34;4.57;;;2.55;;
37559;SDS011;23398;50.928;7.084;2022-07-22T02:05:01;3.83;;;2.28;;
37559;SDS011;23398;50.928;7.084;2022-07-22T02:07:27;3.92;;;2.38;;
37559;SDS011;23398;50.928;7.084;2022-07-22T02:09:53;5.50;;;2.95;;
37559;SDS011;23398;50.928;7.084;2022-07-22T02:12:19;4.35;;;2.67;;
37559;SDS011;23398;50.928;7.084;2022-07-22T02:14:45;3.92;;;2.65;;
37559;SDS011;23398;50.928;7.084;2022-07-22T02:17:11;4.78;;;2.85;;
37559;SDS011;23398;50.928;7.084;2022-07-22T02:19:37;5.22;;;2.53;;
37559;SDS011;23398;50.928;7.084;2022-07-22T02:22:02;5.38;;;2.75;;
37559;SDS011;23398;50.928;7.084;2022-07-22T02:24:28;4.38;;;2.60;;
37559;SDS011;23398;50.928;7.084;2022-07-22T02:26:54;5.97;;;2.85;;
37559;SDS011;23398;50.928;7.084;2022-07-22T02:29:19;3.95;;;2.75;;
37559;SDS011;23398;50.928;7.084;2022-07-22T02:31:45;4.47;;;3.00;;
37559;SDS011;23398;50.928;7.084;2022-07-22T02:34:11;5.22;;;2.75;;
37559;SDS011;23398;50.928;7.084;2022-07-22T02:36:36;5.22;;;2.78;;
37559;SDS011;23398;50.928;7.084;2022-07-22T02:39:02;5.63;;;2.80;;
37559;SDS011;23398;50.928;7.084;2022-07-22T02:41:28;5.07;;;2.58;;
37559;SDS011;23398;50.928;7.084;2022-07-22T02:43:54;5.72;;;3.10;;
37559;SDS011;23398;50.928;7.084;2022-07-22T02:46:21;6.00;;;3.00;;
37559;SDS011;23398;50.928;7.084;2022-07-22T02:48:47;3.75;;;2.83;;
37559;SDS011;23398;50.928;7.084;2022-07-22T02:51:12;7.60;;;3.10;;
37559;SDS011;23398;50.928;7.084;2022-07-22T02:53:38;4.75;;;2.53;;
37559;SDS011;23398;50.928;7.084;2022-07-22T02:56:04;4.72;;;2.45;;
37559;SDS011;23398;50.928;7.084;2022-07-22T02:58:30;4.13;;;2.85;;
37559;SDS011;23398;50.928;7.084;2022-07-22T03:00:55;4.57;;;2.85;;
37559;SDS011;23398;50.928;7.084;2022-07-22T03:03:21;5.43;;;3.47;;
37559;SDS011;23398;50.928;7.084;2022-07-22T03:05:47;4.65;;;2.75;;
37559;SDS011;23398;50.928;7.084;2022-07-22T03:08:12;4.93;;;3.35;;
37559;SDS011;23398;50.928;7.084;2022-07-22T03:10:38;5.78;;;3.45;;
37559;SDS011;23398;50.928;7.084;2022-07-22T03:13:03;4.10;;;3.05;;
37559;SDS011;23398;50.928;7.084;2022-07-22T03:15:29;7.28;;;3.30;;
37559;SDS011;23398;50.928;7.084;2022-07-22T03:17:55;6.38;;;3.33;;
37559;SDS011;23398;50.928;7.084;2022-07-22T03:20:20;5.13;;;3.90;;
37559;SDS011;23398;50.928;7.084;2022-07-22T03:22:46;7.50;;;3.58;;
37559;SDS011;23398;50.928;7.084;2022-07-22T03:25:12;5.28;;;3.30;;
37559;SDS011;23398;50.928;7.084;2022-07-22T03:27:37;4.75;;;3.33;;
37559;SDS011;23398;50.928;7.084;2022-07-22T03:30:04;4.18;;;3.03;;
37559;SDS011;23398;50.928;7.084;2022-07-22T03:32:30;5.20;;;3.20;;
37559;SDS011;23398;50.928;7.084;2022-07-22T03:34:56;5.85;;;3.40;;
37559;SDS011;23398;50.928;7.084;2022-07-22T03:37:21;4.72;;;3.20;;
37559;SDS011;23398;50.928;7.084;2022-07-22T03:39:47;2.90;;;2.65;;
37559;SDS011;23398;50.928;7.084;2022-07-22T03:42:13;7.40;;;3.40;;
37559;SDS011;23398;50.928;7.084;2022-07-22T03:44:38;4.85;;;3.30;;
37559;SDS011;23398;50.928;7.084;2022-07-22T03:47:04;4.78;;;3.10;;
37559;SDS011;23398;50.928;7.084;2022-07-22T03:49:30;6.60;;;3.13;;
37559;SDS011;23398;50.928;7.084;2022-07-22T03:51:56;6.10;;;3.40;;
37559;SDS011;23398;50.928;7.084;2022-07-22T03:54:22;6.47;;;3.92;;
37559;SDS011;23398;50.928;7.084;2022-07-22T03:56:47;6.45;;;3.58;;
37559;SDS011;23398;50.928;7.084;2022-07-22T03:59:13;4.43;;;3.25;;
37559;SDS011;23398;50.928;7.084;2022-07-22T04:01:39;7.78;;;4.03;;
37559;SDS011;23398;50.928;7.084;2022-07-22T04:04:04;8.05;;;3.63;;
37559;SDS011;23398;50.928;7.084;2022-07-22T04:06:30;5.82;;;3.55;;
37559;SDS011;23398;50.928;7.084;2022-07-22T04:08:56;6.88;;;4.40;;
37559;SDS011;23398;50.928;7.084;2022-07-22T04:11:22;5.93;;;4.85;;
37559;SDS011;23398;50.928;7.084;2022-07-22T04:13:47;6.72;;;5.30;;
37559;SDS011;23398;50.928;7.084;2022-07-22T04:16:13;8.40;;;4.90;;
37559;SDS011;23398;50.928;7.084;2022-07-22T04:18:39;5.63;;;4.30;;
37559;SDS011;23398;50.928;7.084;2022-07-22T04:21:04;6.82;;;4.80;;
37559;SDS011;23398;50.928;7.084;2022-07-22T04:23:30;7.13;;;5.07;;
37559;SDS011;23398;50.928;7.084;2022-07-22T04:25:56;6.68;;;4.68;;
37559;SDS011;23398;50.928;7.084;2022-07-22T04:28:22;6.63;;;4.85;;
37559;SDS011;23398;50.928;7.084;2022-07-22T04:30:47;5.72;;;4.57;;
37559;SDS011;23398;50.928;7.084;2022-07-22T04:33:13;5.85;;;4.93;;
37559;SDS011;23398;50.928;7.084;2022-07-22T04:35:38;7.30;;;4.63;;
37559;SDS011;23398;50.928;7.084;2022-07-22T04:38:04;5.78;;;5.07;;
37559;SDS011;23398;50.928;7.084;2022-07-22T04:40:30;6.13;;;4.75;;
37559;SDS011;23398;50.928;7.084;2022-07-22T04:42:55;6.20;;;4.90;;
37559;SDS011;23398;50.928;7.084;2022-07-22T04:45:21;5.90;;;4.80;;
37559;SDS011;23398;50.928;7.084;2022-07-22T04:47:46;7.28;;;5.25;;
37559;SDS011;23398;50.928;7.084;2022-07-22T04:50:12;7.07;;;4.93;;
37559;SDS011;23398;50.928;7.084;2022-07-22T04:52:38;6.40;;;5.07;;
37559;SDS011;23398;50.928;7.084;2022-07-22T04:55:03;7.45;;;5.25;;
37559;SDS011;23398;50.928;7.084;2022-07-22T04:57:29;6.90;;;5.03;;
37559;SDS011;23398;50.928;7.084;2022-07-22T04:59:55;5.75;;;4.90;;
37559;SDS011;23398;50.928;7.084;2022-07-22T05:02:21;5.82;;;4.97;;
37559;SDS011;23398;50.928;7.084;2022-07-22T05:04:46;7.40;;;4.85;;
37559;SDS011;23398;50.928;7.084;2022-07-22T05:07:12;6.47;;;5.28;;
37559;SDS011;23398;50.928;7.084;2022-07-22T05:09:37;5.70;;;5.13;;
37559;SDS011;23398;50.928;7.084;2022-07-22T05:12:03;6.82;;;4.97;;
37559;SDS011;23398;50.928;7.084;2022-07-22T05:14:29;6.10;;;4.70;;
37559;SDS011;23398;50.928;7.084;2022-07-22T05:16:55;5.63;;;5.03;;
37559;SDS011;23398;50.928;7.084;2022-07-22T05:19:20;6.38;;;4.75;;
37559;SDS011;23398;50.928;7.084;2022-07-22T05:21:46;7.07;;;4.82;;
37559;SDS011;23398;50.928;7.084;2022-07-22T05:24:11;6.38;;;4.97;;
37559;SDS011;23398;50.928;7.084;2022-07-22T05:26:37;6.93;;;5.20;;
37559;SDS011;23398;50.928;7.084;2022-07-22T05:29:03;7.05;;;5.55;;
37559;SDS011;23398;50.928;7.084;2022-07-22T05:31:29;6.65;;;5.38;;
37559;SDS011;23398;50.928;7.084;2022-07-22T05:33:54;5.90;;;5.22;;
37559;SDS011;23398;50.928;7.084;2022-07-22T05:36:20;5.70;;;5.20;;
37559;SDS011;23398;50.928;7.084;2022-07-22T05:38:46;5.60;;;5.10;;
37559;SDS011;23398;50.928;7.084;2022-07-22T05:41:12;6.10;;;5.47;;
37559;SDS011;23398;50.928;7.084;2022-07-22T05:43:37;5.65;;;5.15;;
37559;SDS011;23398;50.928;7.084;2022-07-22T05:46:03;5.88;;;4.80;;
37559;SDS011;23398;50.928;7.084;2022-07-22T05:48:29;6.03;;;5.00;;
37559;SDS011;23398;50.928;7.084;2022-07-22T05:50:54;5.80;;;5.20;;
37559;SDS011;23398;50.928;7.084;2022-07-22T05:53:20;5.50;;;4.95;;
37559;SDS011;23398;50.928;7.084;2022-07-22T05:55:46;5.65;;;5.00;;
37559;SDS011;23398;50.928;7.084;2022-07-22T05:58:11;6.40;;;4.82;;
37559;SDS011;23398;50.928;7.084;2022-07-22T06:00:37;5.50;;;4.93;;
37559;SDS011;23398;50.928;7.084;2022-07-22T06:03:04;4.85;;;4.45;;
37559;SDS011;23398;50.928;7.084;2022-07-22T06:05:30;5.28;;;4.78;;
37559;SDS011;23398;50.928;7.084;2022-07-22T06:07:56;5.85;;;5.28;;
37559;SDS011;23398;50.928;7.084;2022-07-22T06:10:22;6.65;;;5.20;;
37559;SDS011;23398;50.928;7.084;2022-07-22T06:12:47;4.82;;;4.43;;
37559;SDS011;23398;50.928;7.084;2022-07-22T06:15:13;7.47;;;4.78;;
37559;SDS011;23398;50.928;7.084;2022-07-22T06:17:38;5.28;;;4.78;;
37559;SDS011;23398;50.928;7.084;2022-07-22T06:20:04;6.15;;;5.28;;
37559;SDS011;23398;50.928;7.084;2022-07-22T06:22:30;5.28;;;4.78;;
37559;SDS011;23398;50.928;7.084;2022-07-22T06:24:56;5.82;;;4.88;;
37559;SDS011;23398;50.928;7.084;2022-07-22T06:27:22;5.05;;;4.40;;
37559;SDS011;23398;50.928;7.084;2022-07-22T06:29:47;5.03;;;4.53;;
37559;SDS011;23398;50.928;7.084;2022-07-22T06:32:13;5.10;;;4.60;;
37559;SDS011;23398;50.928;7.084;2022-07-22T06:34:38;5.07;;;4.63;;
37559;SDS011;23398;50.928;7.084;2022-07-22T06:37:04;8.23;;;4.97;;
37559;SDS011;23398;50.928;7.084;2022-07-22T06:39:30;6.05;;;4.82;;
37559;SDS011;23398;50.928;7.084;2022-07-22T06:41:55;5.60;;;4.97;;
37559;SDS011;23398;50.928;7.084;2022-07-22T06:44:21;4.85;;;4.20;;
37559;SDS011;23398;50.928;7.084;2022-07-22T06:46:46;5.70;;;4.75;;
37559;SDS011;23398;50.928;7.084;2022-07-22T06:49:12;7.05;;;5.00;;
37559;SDS011;23398;50.928;7.084;2022-07-22T06:51:37;5.93;;;5.32;;
37559;SDS011;23398;50.928;7.084;2022-07-22T06:54:03;5.63;;;4.75;;
37559;SDS011;23398;50.928;7.084;2022-07-22T06:56:29;6.20;;;5.20;;
37559;SDS011;23398;50.928;7.084;2022-07-22T06:58:54;5.70;;;5.03;;
37559;SDS011;23398;50.928;7.084;2022-07-22T07:01:20;5.25;;;4.72;;
37559;SDS011;23398;50.928;7.084;2022-07-22T07:03:46;5.30;;;4.55;;
37559;SDS011;23398;50.928;7.084;2022-07-22T07:06:11;4.65;;;4.25;;
37559;SDS011;23398;50.928;7.084;2022-07-22T07:08:38;7.18;;;4.47;;
37559;SDS011;23398;50.928;7.084;2022-07-22T07:11:04;4.85;;;4.35;;
37559;SDS011;23398;50.928;7.084;2022-07-22T07:13:29;4.65;;;4.07;;
37559;SDS011;23398;50.928;7.084;2022-07-22T07:15:55;5.07;;;4.57;;
37559;SDS011;23398;50.928;7.084;2022-07-22T07:18:21;8.10;;;4.60;;
37559;SDS011;23398;50.928;7.084;2022-07-22T07:20:47;4.90;;;4.43;;
37559;SDS011;23398;50.928;7.084;2022-07-22T07:23:13;4.45;;;4.03;;
37559;SDS011;23398;50.928;7.084;2022-07-22T07:25:39;4.07;;;3.70;;
37559;SDS011;23398;50.928;7.084;2022-07-22T07:28:04;4.50;;;4.10;;
37559;SDS011;23398;50.928;7.084;2022-07-22T07:30:30;4.40;;;4.00;;
37559;SDS011;23398;50.928;7.084;2022-07-22T07:32:56;4.43;;;4.03;;
37559;SDS011;23398;50.928;7.084;2022-07-22T07:35:21;4.90;;;4.40;;
37559;SDS011;23398;50.928;7.084;2022-07-22T07:37:47;5.20;;;4.40;;
37559;SDS011;23398;50.928;7.084;2022-07-22T07:40:12;4.35;;;3.88;;
37559;SDS011;23398;50.928;7.084;2022-07-22T07:42:38;4.95;;;4.28;;
37559;SDS011;23398;50.928;7.084;2022-07-22T07:45:04;5.40;;;4.90;;
37559;SDS011;23398;50.928;7.084;2022-07-22T07:47:30;6.28;;;5.15;;
37559;SDS011;23398;50.928;7.084;2022-07-22T07:49:56;5.45;;;4.93;;
37559;SDS011;23398;50.928;7.084;2022-07-22T07:52:22;4.95;;;4.55;;
37559;SDS011;23398;50.928;7.084;2022-07-22T07:54:48;6.22;;;4.78;;
37559;SDS011;23398;50.928;7.084;2022-07-22T07:57:14;5.60;;;5.10;;
37559;SDS011;23398;50.928;7.084;2022-07-22T07:59:40;5.38;;;4.88;;
37559;SDS011;23398;50.928;7.084;2022-07-22T08:02:06;5.53;;;5.03;;
37559;SDS011;23398;50.928;7.084;2022-07-22T08:04:32;5.60;;;5.00;;
37559;SDS011;23398;50.928;7.084;2022-07-22T08:07:00;6.15;;;5.55;;
37559;SDS011;23398;50.928;7.084;2022-07-22T08:09:25;5.45;;;4.95;;
37559;SDS011;23398;50.928;7.084;2022-07-22T08:11:51;6.32;;;5.45;;
37559;SDS011;23398;50.928;7.084;2022-07-22T08:14:17;5.95;;;5.38;;
37559;SDS011;23398;50.928;7.084;2022-07-22T08:16:43;6.05;;;5.55;;
37559;SDS011;23398;50.928;7.084;2022-07-22T08:19:08;6.65;;;5.97;;
37559;SDS011;23398;50.928;7.084;2022-07-22T08:21:34;6.18;;;5.57;;
37559;SDS011;23398;50.928;7.084;2022-07-22T08:23:59;7.40;;;5.75;;
37559;SDS011;23398;50.928;7.084;2022-07-22T08:26:25;6.15;;;5.55;;
37559;SDS011;23398;50.928;7.084;2022-07-22T08:28:51;6.22;;;5.63;;
37559;SDS011;23398;50.928;7.084;2022-07-22T08:31:16;6.10;;;5.57;;
37559;SDS011;23398;50.928;7.084;2022-07-22T08:33:42;6.15;;;5.55;;
37559;SDS011;23398;50.928;7.084;2022-07-22T08:36:08;5.70;;;5.20;;
37559;SDS011;23398;50.928;7.084;2022-07-22T08:38:33;5.82;;;5.28;;
37559;SDS011;23398;50.928;7.084;2022-07-22T08:41:00;5.95;;;5.40;;
37559;SDS011;23398;50.928;7.084;2022-07-22T08:43:27;6.38;;;5.38;;
37559;SDS011;23398;50.928;7.084;2022-07-22T08:45:52;5.68;;;5.10;;
37559;SDS011;23398;50.928;7.084;2022-07-22T08:48:18;5.72;;;5.22;;
37559;SDS011;23398;50.928;7.084;2022-07-22T08:50:44;5.47;;;4.97;;
37559;SDS011;23398;50.928;7.084;2022-07-22T08:53:13;5.13;;;4.63;;
37559;SDS011;23398;50.928;7.084;2022-07-22T08:55:42;5.20;;;4.80;;
37559;SDS011;23398;50.928;7.084;2022-07-22T08:58:10;5.20;;;4.70;;
37559;SDS011;23398;50.928;7.084;2022-07-22T09:00:36;5.93;;;4.40;;
37559;SDS011;23398;50.928;7.084;2022-07-22T09:03:23;4.80;;;4.28;;
37559;SDS011;23398;50.928;7.084;2022-07-22T09:05:52;4.15;;;3.75;;
37559;SDS011;23398;50.928;7.084;2022-07-22T09:08:19;5.45;;;3.90;;
37559;SDS011;23398;50.928;7.084;2022-07-22T09:10:45;4.30;;;3.92;;
37559;SDS011;23398;50.928;7.084;2022-07-22T09:13:11;4.45;;;3.92;;
37559;SDS011;23398;50.928;7.084;2022-07-22T09:15:47;5.57;;;3.85;;
37559;SDS011;23398;50.928;7.084;2022-07-22T09:18:14;4.50;;;4.10;;
37559;SDS011;23398;50.928;7.084;2022-07-22T09:20:40;4.72;;;4.20;;
37559;SDS011;23398;50.928;7.084;2022-07-22T09:23:18;4.70;;;4.13;;
37559;SDS011;23398;50.928;7.084;2022-07-22T09:25:47;4.22;;;3.83;;
37559;SDS011;23398;50.928;7.084;2022-07-22T09:28:17;4.45;;;4.05;;
37559;SDS011;23398;50.928;7.084;2022-07-22T09:30:52;4.53;;;4.00;;
37559;SDS011;23398;50.928;7.084;2022-07-22T09:33:19;3.92;;;3.63;;
37559;SDS011;23398;50.928;7.084;2022-07-22T09:35:46;3.97;;;3.65;;
37559;SDS011;23398;50.928;7.084;2022-07-22T09:38:13;4.43;;;4.03;;
37559;SDS011;23398;50.928;7.084;2022-07-22T09:40:41;3.95;;;3.58;;
37559;SDS011;23398;50.928;7.084;2022-07-22T09:43:12;4.22;;;3.83;;
37559;SDS011;23398;50.928;7.084;2022-07-22T09:45:51;3.83;;;3.45;;
37559;SDS011;23398;50.928;7.084;2022-07-22T09:48:22;4.10;;;3.67;;
37559;SDS011;23398;50.928;7.084;2022-07-22T09:50:48;4.35;;;3.85;;
37559;SDS011;23398;50.928;7.084;2022-07-22T09:53:15;5.40;;;3.50;;
37559;SDS011;23398;50.928;7.084;2022-07-22T09:55:42;4.68;;;3.92;;
37559;SDS011;23398;50.928;7.084;2022-07-22T09:58:08;3.92;;;3.53;;
37559;SDS011;23398;50.928;7.084;2022-07-22T10:00:34;4.32;;;3.90;;
37559;SDS011;23398;50.928;7.084;2022-07-22T10:03:02;4.10;;;3.70;;
37559;SDS011;23398;50.928;7.084;2022-07-22T10:05:31;3.63;;;3.28;;
37559;SDS011;23398;50.928;7.084;2022-07-22T10:08:00;3.40;;;3.10;;
37559;SDS011;23398;50.928;7.084;2022-07-22T10:10:28;4.60;;;3.67;;
37559;SDS011;23398;50.928;7.084;2022-07-22T10:12:55;4.18;;;3.78;;
37559;SDS011;23398;50.928;7.084;2022-07-22T10:15:22;4.03;;;3.63;;
37559;SDS011;23398;50.928;7.084;2022-07-22T10:17:51;3.80;;;3.50;;
37559;SDS011;23398;50.928;7.084;2022-07-22T10:20:24;3.92;;;3.63;;
37559;SDS011;23398;50.928;7.084;2022-07-22T10:25:25;3.90;;;3.50;;
37559;SDS011;23398;50.928;7.084;2022-07-22T10:30:32;4.22;;;3.72;;
37559;SDS011;23398;50.928;7.084;2022-07-22T10:35:29;3.42;;;3.05;;
37559;SDS011;23398;50.928;7.084;2022-07-22T10:37:56;3.92;;;3.58;;
37559;SDS011;23398;50.928;7.084;2022-07-22T10:40:28;4.00;;;3.70;;
37559;SDS011;23398;50.928;7.084;2022-07-22T10:45:30;4.35;;;3.95;;
37559;SDS011;23398;50.928;7.084;2022-07-22T10:48:00;4.32;;;3.92;;
37559;SDS011;23398;50.928;7.084;2022-07-22T10:53:05;4.53;;;3.80;;
37559;SDS011;23398;50.928;7.084;2022-07-22T10:55:32;5.53;;;3.97;;
37559;SDS011;23398;50.928;7.084;2022-07-22T10:57:59;3.83;;;3.53;;
37559;SDS011;23398;50.928;7.084;2022-07-22T11:00:25;3.58;;;3.22;;
37559;SDS011;23398;50.928;7.084;2022-07-22T11:02:51;4.20;;;3.80;;
37559;SDS011;23398;50.928;7.084;2022-07-22T11:05:26;4.10;;;3.70;;
37559;SDS011;23398;50.928;7.084;2022-07-22T11:07:52;3.70;;;3.35;;
37559;SDS011;23398;50.928;7.084;2022-07-22T11:10:19;4.38;;;3.92;;
37559;SDS011;23398;50.928;7.084;2022-07-22T11:12:46;5.22;;;4.72;;
37559;SDS011;23398;50.928;7.084;2022-07-22T11:15:13;4.53;;;4.13;;
37559;SDS011;23398;50.928;7.084;2022-07-22T11:17:39;4.00;;;3.60;;
37559;SDS011;23398;50.928;7.084;2022-07-22T11:20:09;3.95;;;3.55;;
37559;SDS011;23398;50.928;7.084;2022-07-22T11:22:36;4.10;;;3.70;;
37559;SDS011;23398;50.928;7.084;2022-07-22T11:25:04;4.35;;;3.95;;
37559;SDS011;23398;50.928;7.084;2022-07-22T11:27:31;4.18;;;3.88;;
37559;SDS011;23398;50.928;7.084;2022-07-22T11:29:57;3.97;;;3.58;;
37559;SDS011;23398;50.928;7.084;2022-07-22T11:32:24;3.95;;;3.38;;
37559;SDS011;23398;50.928;7.084;2022-07-22T11:34:51;3.47;;;3.17;;
37559;SDS011;23398;50.928;7.084;2022-07-22T11:37:19;3.72;;;3.42;;
37559;SDS011;23398;50.928;7.084;2022-07-22T11:39:48;3.88;;;3.55;;
37559;SDS011;23398;50.928;7.084;2022-07-22T11:42:15;4.40;;;3.63;;
37559;SDS011;23398;50.928;7.084;2022-07-22T11:44:41;4.55;;;4.15;;
37559;SDS011;23398;50.928;7.084;2022-07-22T11:47:07;3.83;;;3.53;;
37559;SDS011;23398;50.928;7.084;2022-07-22T11:49:34;4.43;;;3.55;;
37559;SDS011;23398;50.928;7.084;2022-07-22T11:52:08;3.75;;;3.42;;
37559;SDS011;23398;50.928;7.084;2022-07-22T11:54:41;4.13;;;3.83;;
37559;SDS011;23398;50.928;7.084;2022-07-22T11:57:08;3.95;;;3.63;;
37559;SDS011;23398;50.928;7.084;2022-07-22T11:59:34;4.00;;;3.70;;
37559;SDS011;23398;50.928;7.084;2022-07-22T12:02:00;4.32;;;3.70;;
37559;SDS011;23398;50.928;7.084;2022-07-22T12:04:28;4.13;;;3.72;;
37559;SDS011;23398;50.928;7.084;2022-07-22T12:06:57;3.95;;;3.63;;
37559;SDS011;23398;50.928;7.084;2022-07-22T12:09:25;4.10;;;3.70;;
37559;SDS011;23398;50.928;7.084;2022-07-22T12:11:55;4.35;;;3.95;;
37559;SDS011;23398;50.928;7.084;2022-07-22T12:14:24;3.55;;;3.25;;
37559;SDS011;23398;50.928;7.084;2022-07-22T12:19:27;3.65;;;3.35;;
37559;SDS011;23398;50.928;7.084;2022-07-22T12:24:26;4.20;;;3.80;;
37559;SDS011;23398;50.928;7.084;2022-07-22T12:26:58;4.28;;;3.88;;
37559;SDS011;23398;50.928;7.084;2022-07-22T12:29:43;4.35;;;3.95;;
37559;SDS011;23398;50.928;7.084;2022-07-22T12:32:31;4.40;;;4.00;;
37559;SDS011;23398;50.928;7.084;2022-07-22T12:37:23;4.63;;;4.22;;
37559;SDS011;23398;50.928;7.084;2022-07-22T12:42:40;4.70;;;4.30;;
37559;SDS011;23398;50.928;7.084;2022-07-22T12:45:09;4.20;;;3.85;;
37559;SDS011;23398;50.928;7.084;2022-07-22T12:47:39;4.80;;;4.40;;
37559;SDS011;23398;50.928;7.084;2022-07-22T12:55:30;4.80;;;4.30;;
37559;SDS011;23398;50.928;7.084;2022-07-22T12:57:58;4.10;;;3.70;;
37559;SDS011;23398;50.928;7.084;2022-07-22T13:00:25;5.32;;;4.25;;
37559;SDS011;23398;50.928;7.084;2022-07-22T13:02:53;4.10;;;3.70;;
37559;SDS011;23398;50.928;7.084;2022-07-22T13:05:19;4.07;;;3.60;;
37559;SDS011;23398;50.928;7.084;2022-07-22T13:07:45;5.05;;;4.50;;
37559;SDS011;23398;50.928;7.084;2022-07-22T13:10:11;4.65;;;4.25;;
37559;SDS011;23398;50.928;7.084;2022-07-22T13:12:38;4.82;;;4.32;;
37559;SDS011;23398;50.928;7.084;2022-07-22T13:15:04;5.30;;;4.70;;
37559;SDS011;23398;50.928;7.084;2022-07-22T13:17:30;5.22;;;4.72;;
37559;SDS011;23398;50.928;7.084;2022-07-22T13:19:56;4.75;;;4.35;;
37559;SDS011;23398;50.928;7.084;2022-07-22T13:22:22;6.00;;;4.50;;
37559;SDS011;23398;50.928;7.084;2022-07-22T13:24:48;4.65;;;3.88;;
37559;SDS011;23398;50.928;7.084;2022-07-22T13:27:14;4.47;;;4.07;;
37559;SDS011;23398;50.928;7.084;2022-07-22T13:29:40;4.68;;;4.07;;
37559;SDS011;23398;50.928;7.084;2022-07-22T13:32:06;4.13;;;3.72;;
37559;SDS011;23398;50.928;7.084;2022-07-22T13:34:32;4.30;;;3.90;;
37559;SDS011;23398;50.928;7.084;2022-07-22T13:36:58;4.20;;;3.80;;
37559;SDS011;23398;50.928;7.084;2022-07-22T13:39:25;4.47;;;4.07;;
37559;SDS011;23398;50.928;7.084;2022-07-22T13:41:50;4.45;;;4.05;;
37559;SDS011;23398;50.928;7.084;2022-07-22T13:44:16;4.40;;;4.00;;
37559;SDS011;23398;50.928;7.084;2022-07-22T13:46:42;5.88;;;4.25;;
37559;SDS011;23398;50.928;7.084;2022-07-22T13:49:07;4.82;;;4.13;;
37559;SDS011;23398;50.928;7.084;2022-07-22T13:51:33;4.25;;;3.88;;
37559;SDS011;23398;50.928;7.084;2022-07-22T13:53:59;4.43;;;4.03;;
37559;SDS011;23398;50.928;7.084;2022-07-22T13:56:24;5.18;;;4.10;;
37559;SDS011;23398;50.928;7.084;2022-07-22T13:58:50;4.82;;;4.32;;
37559;SDS011;23398;50.928;7.084;2022-07-22T14:01:16;4.35;;;4.03;;
37559;SDS011;23398;50.928;7.084;2022-07-22T14:03:42;4.72;;;4.32;;
37559;SDS011;23398;50.928;7.084;2022-07-22T14:06:08;4.80;;;4.30;;
37559;SDS011;23398;50.928;7.084;2022-07-22T14:08:36;4.97;;;4.50;;
37559;SDS011;23398;50.928;7.084;2022-07-22T14:11:02;5.47;;;4.50;;
37559;SDS011;23398;50.928;7.084;2022-07-22T14:13:28;4.68;;;4.18;;
37559;SDS011;23398;50.928;7.084;2022-07-22T14:15:54;5.28;;;4.15;;
37559;SDS011;23398;50.928;7.084;2022-07-22T14:18:19;6.20;;;4.05;;
37559;SDS011;23398;50.928;7.084;2022-07-22T14:20:45;5.82;;;4.20;;
37559;SDS011;23398;50.928;7.084;2022-07-22T14:23:11;4.53;;;4.13;;
37559;SDS011;23398;50.928;7.084;2022-07-22T14:25:38;5.30;;;4.72;;
37559;SDS011;23398;50.928;7.084;2022-07-22T14:28:05;5.88;;;4.95;;
37559;SDS011;23398;50.928;7.084;2022-07-22T14:30:31;4.40;;;4.00;;
37559;SDS011;23398;50.928;7.084;2022-07-22T14:32:58;4.75;;;4.18;;
37559;SDS011;23398;50.928;7.084;2022-07-22T14:35:25;5.28;;;4.75;;
37559;SDS011;23398;50.928;7.084;2022-07-22T14:37:50;5.70;;;5.20;;
37559;SDS011;23398;50.928;7.084;2022-07-22T14:40:16;4.75;;;4.25;;
37559;SDS011;23398;50.928;7.084;2022-07-22T14:42:41;4.55;;;4.15;;
37559;SDS011;23398;50.928;7.084;2022-07-22T14:45:07;4.63;;;4.22;;
37559;SDS011;23398;50.928;7.084;2022-07-22T14:47:34;4.90;;;4.15;;
37559;SDS011;23398;50.928;7.084;2022-07-22T14:50:01;4.78;;;4.38;;
37559;SDS011;23398;50.928;7.084;2022-07-22T14:52:28;5.85;;;4.75;;
37559;SDS011;23398;50.928;7.084;2022-07-22T14:54:53;5.55;;;4.75;;
37559;SDS011;23398;50.928;7.084;2022-07-22T14:57:19;5.70;;;5.10;;
37559;SDS011;23398;50.928;7.084;2022-07-22T14:59:44;7.18;;;5.57;;
37559;SDS011;23398;50.928;7.084;2022-07-22T15:02:10;4.95;;;4.47;;
37559;SDS011;23398;50.928;7.084;2022-07-22T15:04:35;4.45;;;4.05;;
37559;SDS011;23398;50.928;7.084;2022-07-22T15:07:01;5.25;;;4.35;;
37559;SDS011;23398;50.928;7.084;2022-07-22T15:09:27;4.47;;;4.05;;
37559;SDS011;23398;50.928;7.084;2022-07-22T15:11:53;5.28;;;4.78;;